X  Sluiten METAR luchtvaart weer gegevens      EHLW Leeuwarden Air Base
Temperatuur
1°C Temperatuur
0°C Dauwpunt
93% Vochtigheid



Wind
19 KM/U
12 MPH
5 M/S
10 KTS



170°
Zuid
Huidig weer

Mist Mist
Luchtdruk 1022.92 (hPa) - 30.21 (inHg)
Zicht 2.5 (mijl) - 4 (km)
Vliegveld
Vliegveld code EHLW

Locatie : Leeuwarden Air Base
Afstand: 30 (km)

Metar:
EHLW 300655Z AUTO 17010KT 130V210 4400 BR OVC046 01/00 Q1023 GRN

Tijd: 30-11-2020 07:55 CET